sensor_id;sensor_type;location;lat;lon;timestamp;temperature;humidity
7518;DHT22;3800;48.922;9.444;2022-10-23T00:01:51;10.50;99.90
7518;DHT22;3800;48.922;9.444;2022-10-23T00:04:20;10.50;99.90
7518;DHT22;3800;48.922;9.444;2022-10-23T00:06:47;10.50;99.90
7518;DHT22;3800;48.922;9.444;2022-10-23T00:09:15;10.50;99.90
7518;DHT22;3800;48.922;9.444;2022-10-23T00:11:42;10.50;99.90
7518;DHT22;3800;48.922;9.444;2022-10-23T00:14:09;10.50;99.90
7518;DHT22;3800;48.922;9.444;2022-10-23T00:16:37;10.50;99.90
7518;DHT22;3800;48.922;9.444;2022-10-23T00:19:05;10.40;99.90
7518;DHT22;3800;48.922;9.444;2022-10-23T00:21:32;10.40;99.90
7518;DHT22;3800;48.922;9.444;2022-10-23T00:24:00;10.40;99.90
7518;DHT22;3800;48.922;9.444;2022-10-23T00:26:27;10.30;99.90
7518;DHT22;3800;48.922;9.444;2022-10-23T00:28:55;10.20;99.90
7518;DHT22;3800;48.922;9.444;2022-10-23T00:31:23;10.20;99.90
7518;DHT22;3800;48.922;9.444;2022-10-23T00:33:51;10.20;99.90
7518;DHT22;3800;48.922;9.444;2022-10-23T00:36:18;10.20;99.90
7518;DHT22;3800;48.922;9.444;2022-10-23T00:38:46;10.20;99.90
7518;DHT22;3800;48.922;9.444;2022-10-23T00:41:16;10.10;99.90
7518;DHT22;3800;48.922;9.444;2022-10-23T00:46:21;10.10;99.90
7518;DHT22;3800;48.922;9.444;2022-10-23T00:48:49;10.10;99.90
7518;DHT22;3800;48.922;9.444;2022-10-23T00:51:16;10.10;99.90
7518;DHT22;3800;48.922;9.444;2022-10-23T00:53:44;10.10;99.90
7518;DHT22;3800;48.922;9.444;2022-10-23T00:56:12;10.00;99.90
7518;DHT22;3800;48.922;9.444;2022-10-23T00:58:40;10.00;99.90
7518;DHT22;3800;48.922;9.444;2022-10-23T01:01:14;10.00;99.90
7518;DHT22;3800;48.922;9.444;2022-10-23T01:03:41;9.90;99.90
7518;DHT22;3800;48.922;9.444;2022-10-23T01:06:35;9.80;99.90
7518;DHT22;3800;48.922;9.444;2022-10-23T01:09:21;9.80;99.90
7518;DHT22;3800;48.922;9.444;2022-10-23T01:11:48;9.70;99.90
7518;DHT22;3800;48.922;9.444;2022-10-23T01:14:21;9.70;99.90
7518;DHT22;3800;48.922;9.444;2022-10-23T01:16:52;9.60;99.90
7518;DHT22;3800;48.922;9.444;2022-10-23T01:19:36;9.60;99.90
7518;DHT22;3800;48.922;9.444;2022-10-23T01:22:04;9.60;99.90
7518;DHT22;3800;48.922;9.444;2022-10-23T01:25:09;9.60;99.90
7518;DHT22;3800;48.922;9.444;2022-10-23T01:27:33;9.60;99.90
7518;DHT22;3800;48.922;9.444;2022-10-23T01:30:03;9.50;99.90
7518;DHT22;3800;48.922;9.444;2022-10-23T01:32:40;9.50;99.90
7518;DHT22;3800;48.922;9.444;2022-10-23T01:35:11;9.50;99.90
7518;DHT22;3800;48.922;9.444;2022-10-23T01:37:41;9.50;99.90
7518;DHT22;3800;48.922;9.444;2022-10-23T01:40:08;9.40;99.90
7518;DHT22;3800;48.922;9.444;2022-10-23T01:42:37;9.40;99.90
7518;DHT22;3800;48.922;9.444;2022-10-23T01:45:19;9.40;99.90
7518;DHT22;3800;48.922;9.444;2022-10-23T01:47:45;9.40;99.90
7518;DHT22;3800;48.922;9.444;2022-10-23T01:50:13;9.40;99.90
7518;DHT22;3800;48.922;9.444;2022-10-23T01:52:40;9.40;99.90
7518;DHT22;3800;48.922;9.444;2022-10-23T01:55:09;9.40;99.90
7518;DHT22;3800;48.922;9.444;2022-10-23T01:57:36;9.40;99.90
7518;DHT22;3800;48.922;9.444;2022-10-23T02:00:07;9.40;99.90
7518;DHT22;3800;48.922;9.444;2022-10-23T02:02:35;9.40;99.90
7518;DHT22;3800;48.922;9.444;2022-10-23T02:05:06;9.50;99.90
7518;DHT22;3800;48.922;9.444;2022-10-23T02:07:33;9.50;99.90
7518;DHT22;3800;48.922;9.444;2022-10-23T02:10:01;9.60;99.90
7518;DHT22;3800;48.922;9.444;2022-10-23T02:12:36;9.60;99.90
7518;DHT22;3800;48.922;9.444;2022-10-23T02:15:02;9.60;99.90
7518;DHT22;3800;48.922;9.444;2022-10-23T02:17:41;9.60;99.90
7518;DHT22;3800;48.922;9.444;2022-10-23T02:20:16;9.50;99.90
7518;DHT22;3800;48.922;9.444;2022-10-23T02:22:41;9.40;99.90
7518;DHT22;3800;48.922;9.444;2022-10-23T02:25:11;9.40;99.90
7518;DHT22;3800;48.922;9.444;2022-10-23T02:27:38;9.40;99.90
7518;DHT22;3800;48.922;9.444;2022-10-23T02:30:07;9.30;99.90
7518;DHT22;3800;48.922;9.444;2022-10-23T02:32:35;9.30;99.90
7518;DHT22;3800;48.922;9.444;2022-10-23T02:35:03;9.30;99.90
7518;DHT22;3800;48.922;9.444;2022-10-23T02:37:30;9.30;99.90
7518;DHT22;3800;48.922;9.444;2022-10-23T02:39:58;9.30;99.90
7518;DHT22;3800;48.922;9.444;2022-10-23T02:42:28;9.30;99.90
7518;DHT22;3800;48.922;9.444;2022-10-23T02:44:55;9.30;99.90
7518;DHT22;3800;48.922;9.444;2022-10-23T02:47:45;9.20;99.90
7518;DHT22;3800;48.922;9.444;2022-10-23T02:53:04;9.20;99.90
7518;DHT22;3800;48.922;9.444;2022-10-23T02:55:31;9.20;99.90
7518;DHT22;3800;48.922;9.444;2022-10-23T02:57:59;9.20;99.90
7518;DHT22;3800;48.922;9.444;2022-10-23T03:00:23;9.20;99.90
7518;DHT22;3800;48.922;9.444;2022-10-23T03:05:31;9.30;99.90
7518;DHT22;3800;48.922;9.444;2022-10-23T03:07:58;9.30;99.90
7518;DHT22;3800;48.922;9.444;2022-10-23T03:10:26;9.30;99.90
7518;DHT22;3800;48.922;9.444;2022-10-23T03:12:53;9.30;99.90
7518;DHT22;3800;48.922;9.444;2022-10-23T03:15:21;9.30;99.90
7518;DHT22;3800;48.922;9.444;2022-10-23T03:17:48;9.30;99.90
7518;DHT22;3800;48.922;9.444;2022-10-23T03:20:16;9.20;99.90
7518;DHT22;3800;48.922;9.444;2022-10-23T03:22:44;9.20;99.90
7518;DHT22;3800;48.922;9.444;2022-10-23T03:25:11;9.20;99.90
7518;DHT22;3800;48.922;9.444;2022-10-23T03:27:39;9.20;99.90
7518;DHT22;3800;48.922;9.444;2022-10-23T03:30:07;9.20;99.90
7518;DHT22;3800;48.922;9.444;2022-10-23T03:32:35;9.20;99.90
7518;DHT22;3800;48.922;9.444;2022-10-23T03:35:03;9.20;99.90
7518;DHT22;3800;48.922;9.444;2022-10-23T03:37:31;9.20;99.90
7518;DHT22;3800;48.922;9.444;2022-10-23T03:39:58;9.20;99.90
7518;DHT22;3800;48.922;9.444;2022-10-23T03:42:26;9.20;99.90
7518;DHT22;3800;48.922;9.444;2022-10-23T03:44:54;9.20;99.90
7518;DHT22;3800;48.922;9.444;2022-10-23T03:47:22;9.20;99.90
7518;DHT22;3800;48.922;9.444;2022-10-23T03:49:50;9.20;99.90
7518;DHT22;3800;48.922;9.444;2022-10-23T03:52:17;9.20;99.90
7518;DHT22;3800;48.922;9.444;2022-10-23T03:54:45;9.20;99.90
7518;DHT22;3800;48.922;9.444;2022-10-23T03:57:13;9.20;99.90
7518;DHT22;3800;48.922;9.444;2022-10-23T03:59:41;9.10;99.90
7518;DHT22;3800;48.922;9.444;2022-10-23T04:02:09;9.20;99.90
7518;DHT22;3800;48.922;9.444;2022-10-23T04:04:36;9.20;99.90
7518;DHT22;3800;48.922;9.444;2022-10-23T04:07:05;9.20;99.90
7518;DHT22;3800;48.922;9.444;2022-10-23T04:09:32;9.10;99.90
7518;DHT22;3800;48.922;9.444;2022-10-23T04:12:00;9.10;99.90
7518;DHT22;3800;48.922;9.444;2022-10-23T04:14:28;9.10;99.90
7518;DHT22;3800;48.922;9.444;2022-10-23T04:16:56;9.10;99.90
7518;DHT22;3800;48.922;9.444;2022-10-23T04:19:24;9.10;99.90
7518;DHT22;3800;48.922;9.444;2022-10-23T04:21:52;9.10;99.90
7518;DHT22;3800;48.922;9.444;2022-10-23T04:24:20;9.10;99.90
7518;DHT22;3800;48.922;9.444;2022-10-23T04:26:47;9.10;99.90
7518;DHT22;3800;48.922;9.444;2022-10-23T04:29:15;9.10;99.90
7518;DHT22;3800;48.922;9.444;2022-10-23T04:31:43;9.10;99.90
7518;DHT22;3800;48.922;9.444;2022-10-23T04:34:10;9.00;99.90
7518;DHT22;3800;48.922;9.444;2022-10-23T04:36:38;9.00;99.90
7518;DHT22;3800;48.922;9.444;2022-10-23T04:39:05;9.00;99.90
7518;DHT22;3800;48.922;9.444;2022-10-23T04:41:33;9.00;99.90
7518;DHT22;3800;48.922;9.444;2022-10-23T04:44:01;9.00;99.90
7518;DHT22;3800;48.922;9.444;2022-10-23T04:46:29;8.90;99.90
7518;DHT22;3800;48.922;9.444;2022-10-23T04:48:57;8.90;99.90
7518;DHT22;3800;48.922;9.444;2022-10-23T04:51:24;8.90;99.90
7518;DHT22;3800;48.922;9.444;2022-10-23T04:53:52;8.90;99.90
7518;DHT22;3800;48.922;9.444;2022-10-23T04:56:20;8.90;99.90
7518;DHT22;3800;48.922;9.444;2022-10-23T04:58:47;8.90;99.90
7518;DHT22;3800;48.922;9.444;2022-10-23T05:01:16;8.90;99.90
7518;DHT22;3800;48.922;9.444;2022-10-23T05:03:43;8.90;99.90
7518;DHT22;3800;48.922;9.444;2022-10-23T05:06:11;9.00;99.90
7518;DHT22;3800;48.922;9.444;2022-10-23T05:08:38;9.00;99.90
7518;DHT22;3800;48.922;9.444;2022-10-23T05:11:06;9.00;99.90
7518;DHT22;3800;48.922;9.444;2022-10-23T05:13:34;9.00;99.90
7518;DHT22;3800;48.922;9.444;2022-10-23T05:16:01;9.00;99.90
7518;DHT22;3800;48.922;9.444;2022-10-23T05:18:33;9.00;99.90
7518;DHT22;3800;48.922;9.444;2022-10-23T05:21:05;9.00;99.90
7518;DHT22;3800;48.922;9.444;2022-10-23T05:23:32;9.00;99.90
7518;DHT22;3800;48.922;9.444;2022-10-23T05:26:00;9.00;99.90
7518;DHT22;3800;48.922;9.444;2022-10-23T05:28:28;9.00;99.90
7518;DHT22;3800;48.922;9.444;2022-10-23T05:30:56;9.00;99.90
7518;DHT22;3800;48.922;9.444;2022-10-23T05:33:24;9.00;99.90
7518;DHT22;3800;48.922;9.444;2022-10-23T05:35:51;9.00;99.90
7518;DHT22;3800;48.922;9.444;2022-10-23T05:38:20;9.00;99.90
7518;DHT22;3800;48.922;9.444;2022-10-23T05:40:49;9.00;99.90
7518;DHT22;3800;48.922;9.444;2022-10-23T05:43:15;9.00;99.90
7518;DHT22;3800;48.922;9.444;2022-10-23T05:45:43;9.00;99.90
7518;DHT22;3800;48.922;9.444;2022-10-23T05:48:13;9.00;99.90
7518;DHT22;3800;48.922;9.444;2022-10-23T05:50:39;9.00;99.90
7518;DHT22;3800;48.922;9.444;2022-10-23T05:53:08;9.00;99.90
7518;DHT22;3800;48.922;9.444;2022-10-23T05:55:34;9.00;99.90
7518;DHT22;3800;48.922;9.444;2022-10-23T05:58:01;9.00;99.90
7518;DHT22;3800;48.922;9.444;2022-10-23T06:00:29;9.00;99.90
7518;DHT22;3800;48.922;9.444;2022-10-23T06:02:59;9.00;99.90
7518;DHT22;3800;48.922;9.444;2022-10-23T06:05:27;9.00;99.90
7518;DHT22;3800;48.922;9.444;2022-10-23T06:07:57;9.00;99.90
7518;DHT22;3800;48.922;9.444;2022-10-23T06:10:24;9.00;99.90
7518;DHT22;3800;48.922;9.444;2022-10-23T06:12:52;9.00;99.90
7518;DHT22;3800;48.922;9.444;2022-10-23T06:15:19;9.00;99.90
7518;DHT22;3800;48.922;9.444;2022-10-23T06:17:47;9.00;99.90
7518;DHT22;3800;48.922;9.444;2022-10-23T06:20:14;9.00;99.90
7518;DHT22;3800;48.922;9.444;2022-10-23T06:22:42;9.00;99.90
7518;DHT22;3800;48.922;9.444;2022-10-23T06:25:10;9.00;99.90
7518;DHT22;3800;48.922;9.444;2022-10-23T06:27:37;9.00;99.90
7518;DHT22;3800;48.922;9.444;2022-10-23T06:30:06;9.10;99.90
7518;DHT22;3800;48.922;9.444;2022-10-23T06:32:33;9.10;99.90
7518;DHT22;3800;48.922;9.444;2022-10-23T06:35:01;9.10;99.90
7518;DHT22;3800;48.922;9.444;2022-10-23T06:37:31;9.10;99.90
7518;DHT22;3800;48.922;9.444;2022-10-23T06:39:56;9.20;99.90
7518;DHT22;3800;48.922;9.444;2022-10-23T06:42:24;9.20;99.90
7518;DHT22;3800;48.922;9.444;2022-10-23T06:44:52;9.20;99.90
7518;DHT22;3800;48.922;9.444;2022-10-23T06:47:19;9.30;99.90
7518;DHT22;3800;48.922;9.444;2022-10-23T06:49:48;9.40;99.90
7518;DHT22;3800;48.922;9.444;2022-10-23T06:52:15;9.40;99.90
7518;DHT22;3800;48.922;9.444;2022-10-23T06:54:43;9.50;99.90
7518;DHT22;3800;48.922;9.444;2022-10-23T06:57:11;9.60;99.90
7518;DHT22;3800;48.922;9.444;2022-10-23T06:59:38;9.60;99.90
7518;DHT22;3800;48.922;9.444;2022-10-23T07:02:06;9.60;99.90
7518;DHT22;3800;48.922;9.444;2022-10-23T07:04:33;9.70;99.90
7518;DHT22;3800;48.922;9.444;2022-10-23T07:07:01;9.70;99.90
7518;DHT22;3800;48.922;9.444;2022-10-23T07:09:29;9.80;99.90
7518;DHT22;3800;48.922;9.444;2022-10-23T07:11:56;9.80;99.90
7518;DHT22;3800;48.922;9.444;2022-10-23T07:14:24;9.90;99.90
7518;DHT22;3800;48.922;9.444;2022-10-23T07:16:52;9.90;99.90
7518;DHT22;3800;48.922;9.444;2022-10-23T07:19:19;9.90;99.90
7518;DHT22;3800;48.922;9.444;2022-10-23T07:21:49;10.00;99.90
7518;DHT22;3800;48.922;9.444;2022-10-23T07:24:15;10.00;99.90
7518;DHT22;3800;48.922;9.444;2022-10-23T07:26:43;10.10;99.90
7518;DHT22;3800;48.922;9.444;2022-10-23T07:29:11;10.20;99.90
7518;DHT22;3800;48.922;9.444;2022-10-23T07:31:38;10.30;99.90
7518;DHT22;3800;48.922;9.444;2022-10-23T07:34:06;10.30;99.90
7518;DHT22;3800;48.922;9.444;2022-10-23T07:36:33;10.40;99.90
7518;DHT22;3800;48.922;9.444;2022-10-23T07:39:01;10.50;99.90
7518;DHT22;3800;48.922;9.444;2022-10-23T07:41:29;10.50;99.90
7518;DHT22;3800;48.922;9.444;2022-10-23T07:43:56;10.60;99.90
7518;DHT22;3800;48.922;9.444;2022-10-23T07:46:24;10.70;99.90
7518;DHT22;3800;48.922;9.444;2022-10-23T07:48:52;10.80;99.90
7518;DHT22;3800;48.922;9.444;2022-10-23T07:51:19;10.80;99.90
7518;DHT22;3800;48.922;9.444;2022-10-23T07:53:47;10.90;99.90
7518;DHT22;3800;48.922;9.444;2022-10-23T07:56:18;11.10;99.90
7518;DHT22;3800;48.922;9.444;2022-10-23T07:58:44;11.10;99.90
7518;DHT22;3800;48.922;9.444;2022-10-23T08:01:17;11.20;99.90
7518;DHT22;3800;48.922;9.444;2022-10-23T08:03:43;11.20;99.90
7518;DHT22;3800;48.922;9.444;2022-10-23T08:06:11;11.30;99.90
7518;DHT22;3800;48.922;9.444;2022-10-23T08:08:38;11.40;99.90
7518;DHT22;3800;48.922;9.444;2022-10-23T08:11:06;11.50;99.90
7518;DHT22;3800;48.922;9.444;2022-10-23T08:13:34;11.70;99.90
7518;DHT22;3800;48.922;9.444;2022-10-23T08:16:01;11.80;99.90
7518;DHT22;3800;48.922;9.444;2022-10-23T08:18:29;11.90;99.90
7518;DHT22;3800;48.922;9.444;2022-10-23T08:20:59;12.20;99.90
7518;DHT22;3800;48.922;9.444;2022-10-23T08:23:26;12.20;99.90
7518;DHT22;3800;48.922;9.444;2022-10-23T08:25:57;12.30;99.90
7518;DHT22;3800;48.922;9.444;2022-10-23T08:28:24;12.40;99.90
7518;DHT22;3800;48.922;9.444;2022-10-23T08:30:52;12.50;99.90
7518;DHT22;3800;48.922;9.444;2022-10-23T08:33:20;12.60;99.90
7518;DHT22;3800;48.922;9.444;2022-10-23T08:35:47;12.70;99.90
7518;DHT22;3800;48.922;9.444;2022-10-23T08:38:15;12.80;99.90
7518;DHT22;3800;48.922;9.444;2022-10-23T08:40:43;13.10;99.90
7518;DHT22;3800;48.922;9.444;2022-10-23T08:43:31;13.20;99.90
7518;DHT22;3800;48.922;9.444;2022-10-23T08:45:59;13.40;99.90
7518;DHT22;3800;48.922;9.444;2022-10-23T08:48:27;13.40;99.90
7518;DHT22;3800;48.922;9.444;2022-10-23T08:50:54;13.50;99.90
7518;DHT22;3800;48.922;9.444;2022-10-23T08:53:31;13.60;99.90
7518;DHT22;3800;48.922;9.444;2022-10-23T08:56:02;13.60;99.90
7518;DHT22;3800;48.922;9.444;2022-10-23T09:02:35;13.80;99.90
7518;DHT22;3800;48.922;9.444;2022-10-23T09:04:11;13.90;99.90
7518;DHT22;3800;48.922;9.444;2022-10-23T09:06:40;14.10;99.90
7518;DHT22;3800;48.922;9.444;2022-10-23T09:09:30;14.10;99.90
7518;DHT22;3800;48.922;9.444;2022-10-23T09:12:02;14.20;99.90
7518;DHT22;3800;48.922;9.444;2022-10-23T09:14:48;14.30;99.90
7518;DHT22;3800;48.922;9.444;2022-10-23T09:17:24;14.30;99.90
7518;DHT22;3800;48.922;9.444;2022-10-23T09:20:00;14.40;99.90
7518;DHT22;3800;48.922;9.444;2022-10-23T09:22:26;14.50;99.90
7518;DHT22;3800;48.922;9.444;2022-10-23T09:24:54;14.50;99.90
7518;DHT22;3800;48.922;9.444;2022-10-23T09:27:21;14.60;99.90
7518;DHT22;3800;48.922;9.444;2022-10-23T09:29:50;14.70;99.90
7518;DHT22;3800;48.922;9.444;2022-10-23T09:32:18;14.90;99.90
7518;DHT22;3800;48.922;9.444;2022-10-23T09:34:51;14.90;99.90
7518;DHT22;3800;48.922;9.444;2022-10-23T09:37:23;15.00;99.90
7518;DHT22;3800;48.922;9.444;2022-10-23T09:39:59;15.00;99.90
7518;DHT22;3800;48.922;9.444;2022-10-23T09:42:22;15.10;99.90
7518;DHT22;3800;48.922;9.444;2022-10-23T09:44:49;15.30;99.90
7518;DHT22;3800;48.922;9.444;2022-10-23T09:47:17;15.30;99.90
7518;DHT22;3800;48.922;9.444;2022-10-23T09:49:46;15.40;99.90
7518;DHT22;3800;48.922;9.444;2022-10-23T09:52:24;15.50;99.90
7518;DHT22;3800;48.922;9.444;2022-10-23T09:54:55;15.60;99.90
7518;DHT22;3800;48.922;9.444;2022-10-23T09:57:31;15.70;99.90
7518;DHT22;3800;48.922;9.444;2022-10-23T10:00:01;15.90;99.90
7518;DHT22;3800;48.922;9.444;2022-10-23T10:02:30;16.10;99.90
7518;DHT22;3800;48.922;9.444;2022-10-23T10:04:57;16.10;99.90
7518;DHT22;3800;48.922;9.444;2022-10-23T10:07:26;16.30;99.90
7518;DHT22;3800;48.922;9.444;2022-10-23T10:09:53;16.30;99.90
7518;DHT22;3800;48.922;9.444;2022-10-23T10:12:30;16.40;99.90
7518;DHT22;3800;48.922;9.444;2022-10-23T10:15:02;16.70;99.90
7518;DHT22;3800;48.922;9.444;2022-10-23T10:17:42;16.80;99.90
7518;DHT22;3800;48.922;9.444;2022-10-23T10:20:36;16.90;99.90
7518;DHT22;3800;48.922;9.444;2022-10-23T10:23:05;16.90;99.90
7518;DHT22;3800;48.922;9.444;2022-10-23T10:25:35;17.00;99.90
7518;DHT22;3800;48.922;9.444;2022-10-23T10:28:23;17.00;99.90
7518;DHT22;3800;48.922;9.444;2022-10-23T10:31:11;17.00;99.90
7518;DHT22;3800;48.922;9.444;2022-10-23T10:33:46;17.00;99.90
7518;DHT22;3800;48.922;9.444;2022-10-23T10:36:26;17.10;99.90
7518;DHT22;3800;48.922;9.444;2022-10-23T10:38:49;17.10;99.90
7518;DHT22;3800;48.922;9.444;2022-10-23T10:41:36;17.20;99.90
7518;DHT22;3800;48.922;9.444;2022-10-23T10:44:17;17.30;99.90
7518;DHT22;3800;48.922;9.444;2022-10-23T10:46:50;17.40;99.90
7518;DHT22;3800;48.922;9.444;2022-10-23T10:49:18;17.40;99.90
7518;DHT22;3800;48.922;9.444;2022-10-23T10:51:49;17.50;99.90
7518;DHT22;3800;48.922;9.444;2022-10-23T10:54:20;17.70;99.90
7518;DHT22;3800;48.922;9.444;2022-10-23T10:56:46;17.90;99.90
7518;DHT22;3800;48.922;9.444;2022-10-23T10:59:20;18.10;99.90
7518;DHT22;3800;48.922;9.444;2022-10-23T11:04:44;18.20;99.90
7518;DHT22;3800;48.922;9.444;2022-10-23T11:07:14;18.20;99.90
7518;DHT22;3800;48.922;9.444;2022-10-23T11:09:41;18.30;99.90
7518;DHT22;3800;48.922;9.444;2022-10-23T11:12:23;18.30;99.90
7518;DHT22;3800;48.922;9.444;2022-10-23T11:14:50;18.30;99.90
7518;DHT22;3800;48.922;9.444;2022-10-23T11:17:23;18.50;99.90
7518;DHT22;3800;48.922;9.444;2022-10-23T11:20:05;18.50;99.90
7518;DHT22;3800;48.922;9.444;2022-10-23T11:22:35;18.50;99.90
7518;DHT22;3800;48.922;9.444;2022-10-23T11:28:05;18.60;99.90
7518;DHT22;3800;48.922;9.444;2022-10-23T11:30:34;18.60;99.90
7518;DHT22;3800;48.922;9.444;2022-10-23T11:33:33;18.60;99.90
7518;DHT22;3800;48.922;9.444;2022-10-23T11:38:39;18.60;99.90
7518;DHT22;3800;48.922;9.444;2022-10-23T11:41:22;18.70;99.90
7518;DHT22;3800;48.922;9.444;2022-10-23T11:43:52;18.70;99.90
7518;DHT22;3800;48.922;9.444;2022-10-23T11:46:37;18.80;99.90
7518;DHT22;3800;48.922;9.444;2022-10-23T11:49:17;18.80;99.90
7518;DHT22;3800;48.922;9.444;2022-10-23T11:51:34;18.80;99.90
7518;DHT22;3800;48.922;9.444;2022-10-23T11:54:22;18.90;99.90
7518;DHT22;3800;48.922;9.444;2022-10-23T11:56:52;18.90;99.90
7518;DHT22;3800;48.922;9.444;2022-10-23T11:59:23;19.00;99.90
7518;DHT22;3800;48.922;9.444;2022-10-23T12:01:49;19.00;99.90
7518;DHT22;3800;48.922;9.444;2022-10-23T12:04:21;19.00;99.90
7518;DHT22;3800;48.922;9.444;2022-10-23T12:06:52;19.00;99.90
7518;DHT22;3800;48.922;9.444;2022-10-23T12:09:22;19.00;99.90
7518;DHT22;3800;48.922;9.444;2022-10-23T12:12:00;19.00;99.90
7518;DHT22;3800;48.922;9.444;2022-10-23T12:14:24;19.00;99.90
7518;DHT22;3800;48.922;9.444;2022-10-23T12:16:51;19.00;99.90
7518;DHT22;3800;48.922;9.444;2022-10-23T12:19:21;19.00;99.90
7518;DHT22;3800;48.922;9.444;2022-10-23T12:21:51;19.00;99.90
7518;DHT22;3800;48.922;9.444;2022-10-23T12:24:30;19.00;99.90
7518;DHT22;3800;48.922;9.444;2022-10-23T12:27:11;19.00;99.90
7518;DHT22;3800;48.922;9.444;2022-10-23T12:29:45;19.10;99.90
7518;DHT22;3800;48.922;9.444;2022-10-23T12:32:17;19.10;99.90
7518;DHT22;3800;48.922;9.444;2022-10-23T12:37:40;19.30;99.90
7518;DHT22;3800;48.922;9.444;2022-10-23T12:40:05;19.30;99.90
7518;DHT22;3800;48.922;9.444;2022-10-23T12:42:32;19.30;99.90
7518;DHT22;3800;48.922;9.444;2022-10-23T12:45:02;19.30;99.90
7518;DHT22;3800;48.922;9.444;2022-10-23T12:47:28;19.30;99.90
7518;DHT22;3800;48.922;9.444;2022-10-23T12:49:56;19.30;99.90
7518;DHT22;3800;48.922;9.444;2022-10-23T12:52:24;19.40;99.90
7518;DHT22;3800;48.922;9.444;2022-10-23T12:54:51;19.40;99.90
7518;DHT22;3800;48.922;9.444;2022-10-23T12:57:22;19.40;99.90
7518;DHT22;3800;48.922;9.444;2022-10-23T12:59:49;19.40;99.90
7518;DHT22;3800;48.922;9.444;2022-10-23T13:02:25;19.40;99.90
7518;DHT22;3800;48.922;9.444;2022-10-23T13:04:52;19.60;99.90
7518;DHT22;3800;48.922;9.444;2022-10-23T13:07:20;19.60;99.90
7518;DHT22;3800;48.922;9.444;2022-10-23T13:09:47;19.70;99.90
7518;DHT22;3800;48.922;9.444;2022-10-23T13:12:21;19.70;99.90
7518;DHT22;3800;48.922;9.444;2022-10-23T13:14:56;19.70;99.90
7518;DHT22;3800;48.922;9.444;2022-10-23T13:17:32;19.80;99.90
7518;DHT22;3800;48.922;9.444;2022-10-23T13:19:51;19.80;99.90
7518;DHT22;3800;48.922;9.444;2022-10-23T13:22:18;19.80;99.90
7518;DHT22;3800;48.922;9.444;2022-10-23T13:24:47;19.90;99.90
7518;DHT22;3800;48.922;9.444;2022-10-23T13:27:25;19.90;99.90
7518;DHT22;3800;48.922;9.444;2022-10-23T13:29:52;19.80;99.90
7518;DHT22;3800;48.922;9.444;2022-10-23T13:32:22;19.80;99.90
7518;DHT22;3800;48.922;9.444;2022-10-23T13:34:51;19.90;99.90
7518;DHT22;3800;48.922;9.444;2022-10-23T13:37:24;19.80;99.90
7518;DHT22;3800;48.922;9.444;2022-10-23T13:39:58;19.80;99.90
7518;DHT22;3800;48.922;9.444;2022-10-23T13:42:25;19.80;99.90
7518;DHT22;3800;48.922;9.444;2022-10-23T13:44:53;19.70;99.90
7518;DHT22;3800;48.922;9.444;2022-10-23T13:47:21;19.60;99.90
7518;DHT22;3800;48.922;9.444;2022-10-23T13:49:49;19.60;99.90
7518;DHT22;3800;48.922;9.444;2022-10-23T13:52:18;19.60;99.90
7518;DHT22;3800;48.922;9.444;2022-10-23T13:54:44;19.60;99.90
7518;DHT22;3800;48.922;9.444;2022-10-23T13:57:12;19.50;99.90
7518;DHT22;3800;48.922;9.444;2022-10-23T13:59:40;19.50;99.90
7518;DHT22;3800;48.922;9.444;2022-10-23T14:02:17;19.50;99.90
7518;DHT22;3800;48.922;9.444;2022-10-23T14:04:41;19.50;99.90
7518;DHT22;3800;48.922;9.444;2022-10-23T14:07:09;19.40;99.90
7518;DHT22;3800;48.922;9.444;2022-10-23T14:09:37;19.40;99.90
7518;DHT22;3800;48.922;9.444;2022-10-23T14:12:04;19.50;99.90
7518;DHT22;3800;48.922;9.444;2022-10-23T14:14:32;19.50;99.90
7518;DHT22;3800;48.922;9.444;2022-10-23T14:17:00;19.50;99.90
7518;DHT22;3800;48.922;9.444;2022-10-23T14:19:28;19.40;99.90
7518;DHT22;3800;48.922;9.444;2022-10-23T14:21:56;19.40;99.90
7518;DHT22;3800;48.922;9.444;2022-10-23T14:24:23;19.40;99.90
7518;DHT22;3800;48.922;9.444;2022-10-23T14:26:51;19.40;99.90
7518;DHT22;3800;48.922;9.444;2022-10-23T14:29:18;19.40;99.90
7518;DHT22;3800;48.922;9.444;2022-10-23T14:31:46;19.40;99.90
7518;DHT22;3800;48.922;9.444;2022-10-23T14:34:14;19.40;99.90
7518;DHT22;3800;48.922;9.444;2022-10-23T14:36:41;19.40;99.90
7518;DHT22;3800;48.922;9.444;2022-10-23T14:39:09;19.40;99.90
7518;DHT22;3800;48.922;9.444;2022-10-23T14:41:37;19.40;99.90
7518;DHT22;3800;48.922;9.444;2022-10-23T14:44:05;19.40;99.90
7518;DHT22;3800;48.922;9.444;2022-10-23T14:46:33;19.40;99.90
7518;DHT22;3800;48.922;9.444;2022-10-23T14:49:00;19.30;99.90
7518;DHT22;3800;48.922;9.444;2022-10-23T14:51:28;19.30;99.90
7518;DHT22;3800;48.922;9.444;2022-10-23T14:53:57;19.30;99.90
7518;DHT22;3800;48.922;9.444;2022-10-23T14:56:23;19.30;99.90
7518;DHT22;3800;48.922;9.444;2022-10-23T14:58:51;19.20;99.90
7518;DHT22;3800;48.922;9.444;2022-10-23T15:01:19;19.20;99.90
7518;DHT22;3800;48.922;9.444;2022-10-23T15:03:46;19.10;99.90
7518;DHT22;3800;48.922;9.444;2022-10-23T15:06:14;19.10;99.90
7518;DHT22;3800;48.922;9.444;2022-10-23T15:08:41;19.10;99.90
7518;DHT22;3800;48.922;9.444;2022-10-23T15:11:09;19.00;99.90
7518;DHT22;3800;48.922;9.444;2022-10-23T15:13:37;19.00;99.90
7518;DHT22;3800;48.922;9.444;2022-10-23T15:16:06;18.90;99.90
7518;DHT22;3800;48.922;9.444;2022-10-23T15:18:34;18.90;99.90
7518;DHT22;3800;48.922;9.444;2022-10-23T15:21:04;18.80;99.90
7518;DHT22;3800;48.922;9.444;2022-10-23T15:23:32;18.80;99.90
7518;DHT22;3800;48.922;9.444;2022-10-23T15:26:01;18.80;99.90
7518;DHT22;3800;48.922;9.444;2022-10-23T15:28:27;18.70;99.90
7518;DHT22;3800;48.922;9.444;2022-10-23T15:30:55;18.70;99.90
7518;DHT22;3800;48.922;9.444;2022-10-23T15:33:22;18.70;99.90
7518;DHT22;3800;48.922;9.444;2022-10-23T15:35:50;18.60;99.90
7518;DHT22;3800;48.922;9.444;2022-10-23T15:38:17;18.60;99.90
7518;DHT22;3800;48.922;9.444;2022-10-23T15:40:45;18.50;99.90
7518;DHT22;3800;48.922;9.444;2022-10-23T15:43:13;18.50;99.90
7518;DHT22;3800;48.922;9.444;2022-10-23T15:45:41;18.50;99.90
7518;DHT22;3800;48.922;9.444;2022-10-23T15:48:08;18.50;99.90
7518;DHT22;3800;48.922;9.444;2022-10-23T15:50:36;18.50;99.90
7518;DHT22;3800;48.922;9.444;2022-10-23T15:53:03;18.50;99.90
7518;DHT22;3800;48.922;9.444;2022-10-23T15:55:31;18.50;99.90
7518;DHT22;3800;48.922;9.444;2022-10-23T15:57:59;18.50;99.90
7518;DHT22;3800;48.922;9.444;2022-10-23T16:00:26;18.50;99.90
7518;DHT22;3800;48.922;9.444;2022-10-23T16:02:54;18.50;99.90
7518;DHT22;3800;48.922;9.444;2022-10-23T16:05:21;18.50;99.90
7518;DHT22;3800;48.922;9.444;2022-10-23T16:07:49;18.40;99.90
7518;DHT22;3800;48.922;9.444;2022-10-23T16:10:18;18.40;99.90
7518;DHT22;3800;48.922;9.444;2022-10-23T16:12:46;18.40;99.90
7518;DHT22;3800;48.922;9.444;2022-10-23T16:15:14;18.30;99.90
7518;DHT22;3800;48.922;9.444;2022-10-23T16:17:41;18.30;99.90
7518;DHT22;3800;48.922;9.444;2022-10-23T16:20:09;18.30;99.90
7518;DHT22;3800;48.922;9.444;2022-10-23T16:22:37;18.20;99.90
7518;DHT22;3800;48.922;9.444;2022-10-23T16:25:05;18.20;99.90
7518;DHT22;3800;48.922;9.444;2022-10-23T16:27:33;18.20;99.90
7518;DHT22;3800;48.922;9.444;2022-10-23T16:30:00;18.20;99.90
7518;DHT22;3800;48.922;9.444;2022-10-23T16:32:28;18.20;99.90
7518;DHT22;3800;48.922;9.444;2022-10-23T16:34:55;18.20;99.90
7518;DHT22;3800;48.922;9.444;2022-10-23T16:37:23;18.10;99.90
7518;DHT22;3800;48.922;9.444;2022-10-23T16:39:51;18.10;99.90
7518;DHT22;3800;48.922;9.444;2022-10-23T16:42:18;18.10;99.90
7518;DHT22;3800;48.922;9.444;2022-10-23T16:44:46;18.00;99.90